createdAt,value
2022-08-16T00:01:18.670Z,19.74
2022-08-16T00:03:48.189Z,19.74
2022-08-16T00:06:16.893Z,19.71
2022-08-16T00:08:45.873Z,19.69
2022-08-16T00:11:15.842Z,19.68
2022-08-16T00:13:53.465Z,19.66
2022-08-16T00:17:06.293Z,19.65
2022-08-16T00:19:14.223Z,19.64
2022-08-16T00:21:43.454Z,19.61
2022-08-16T00:24:12.543Z,19.60
2022-08-16T00:26:44.474Z,19.58
2022-08-16T00:29:15.709Z,19.58
2022-08-16T00:31:47.093Z,19.57
2022-08-16T00:34:43.840Z,19.57
2022-08-16T00:37:17.210Z,19.54
2022-08-16T00:39:47.867Z,19.53
2022-08-16T00:42:29.592Z,19.48
2022-08-16T00:45:06.414Z,19.47
2022-08-16T00:47:37.156Z,19.46
2022-08-16T00:50:08.197Z,19.45
2022-08-16T00:52:45.708Z,19.43
2022-08-16T00:55:21.873Z,19.43
2022-08-16T00:57:59.769Z,19.41
2022-08-16T01:00:30.721Z,19.41
2022-08-16T01:03:00.161Z,19.39
2022-08-16T01:05:30.302Z,19.37
2022-08-16T01:08:02.633Z,19.36
2022-08-16T01:10:51.066Z,19.34
2022-08-16T01:13:22.617Z,19.31
2022-08-16T01:15:55.327Z,19.30
2022-08-16T01:18:39.814Z,19.29
2022-08-16T01:21:33.415Z,19.28
2022-08-16T01:24:51.415Z,19.27
2022-08-16T01:27:10.303Z,19.25
2022-08-16T01:29:58.608Z,19.23
2022-08-16T01:32:34.246Z,19.22
2022-08-16T01:35:08.976Z,19.21
2022-08-16T01:37:53.932Z,19.21
2022-08-16T01:40:29.475Z,19.19
2022-08-16T01:42:58.299Z,19.17
2022-08-16T01:45:39.820Z,19.13
2022-08-16T01:48:19.572Z,19.11
2022-08-16T01:51:08.288Z,19.10
2022-08-16T01:53:40.717Z,19.06
2022-08-16T01:56:28.695Z,19.04
2022-08-16T01:58:59.622Z,19.01
2022-08-16T02:01:29.234Z,18.96
2022-08-16T02:04:10.390Z,18.95
2022-08-16T02:06:45.985Z,18.93
2022-08-16T02:09:18.013Z,18.90
2022-08-16T02:11:53.217Z,18.89
2022-08-16T02:14:26.691Z,18.87
2022-08-16T02:16:57.931Z,18.85
2022-08-16T02:19:59.530Z,18.84
2022-08-16T02:22:34.180Z,18.82
2022-08-16T02:25:04.565Z,18.79
2022-08-16T02:27:33.909Z,18.77
2022-08-16T02:30:05.354Z,18.75
2022-08-16T02:33:01.000Z,18.73
2022-08-16T02:35:26.236Z,18.69
2022-08-16T02:37:56.249Z,18.67
2022-08-16T02:40:26.673Z,18.63
2022-08-16T02:42:56.376Z,18.62
2022-08-16T02:45:28.007Z,18.61
2022-08-16T02:48:01.744Z,18.59
2022-08-16T02:50:53.509Z,18.57
2022-08-16T02:53:23.889Z,18.55
2022-08-16T02:55:52.962Z,18.55
2022-08-16T02:58:24.944Z,18.53
2022-08-16T03:00:56.027Z,18.49
2022-08-16T03:03:26.429Z,18.48
2022-08-16T03:05:55.713Z,18.45
2022-08-16T03:08:49.693Z,18.43
2022-08-16T03:11:16.693Z,18.43
2022-08-16T03:13:56.481Z,18.41
2022-08-16T03:16:38.434Z,18.38
2022-08-16T03:19:11.576Z,18.36
2022-08-16T03:21:40.189Z,18.33
2022-08-16T03:24:29.300Z,18.30
2022-08-16T03:26:59.516Z,18.27
2022-08-16T03:29:33.615Z,18.25
2022-08-16T03:32:05.017Z,18.24
2022-08-16T03:34:34.341Z,18.21
2022-08-16T03:37:03.465Z,18.20
2022-08-16T03:39:31.531Z,18.18
2022-08-16T03:42:00.423Z,18.13
2022-08-16T03:44:43.918Z,18.10
2022-08-16T03:47:13.542Z,18.07
2022-08-16T03:49:51.751Z,18.06
2022-08-16T03:52:23.497Z,18.03
2022-08-16T03:54:58.121Z,18.01
2022-08-16T03:57:32.078Z,17.99
2022-08-16T04:00:20.767Z,17.97
2022-08-16T04:03:07.703Z,17.92
2022-08-16T04:05:44.380Z,17.90
2022-08-16T04:08:22.941Z,17.89
2022-08-16T04:10:58.017Z,17.88
2022-08-16T04:14:01.371Z,17.86
2022-08-16T04:16:26.212Z,17.83
2022-08-16T04:19:01.973Z,17.81
2022-08-16T04:21:31.896Z,17.81
2022-08-16T04:24:01.707Z,17.79
2022-08-16T04:26:32.391Z,17.78
2022-08-16T04:29:16.679Z,17.78
2022-08-16T04:31:56.726Z,17.79
2022-08-16T04:34:33.253Z,17.77
2022-08-16T04:37:02.726Z,17.75
2022-08-16T04:39:36.689Z,17.72
2022-08-16T04:42:14.791Z,17.69
2022-08-16T04:44:54.668Z,17.68
2022-08-16T04:47:33.255Z,17.63
2022-08-16T04:50:08.458Z,17.64
2022-08-16T04:52:37.288Z,17.66
2022-08-16T04:55:08.687Z,17.67
2022-08-16T04:57:38.386Z,17.67
2022-08-16T05:00:30.729Z,17.68
2022-08-16T05:03:08.415Z,17.68
2022-08-16T05:05:44.949Z,17.69
2022-08-16T05:08:28.493Z,17.70
2022-08-16T05:11:05.528Z,17.72
2022-08-16T05:13:41.856Z,17.75
2022-08-16T05:16:19.663Z,17.76
2022-08-16T05:18:53.691Z,17.80
2022-08-16T05:21:26.979Z,17.83
2022-08-16T05:23:58.541Z,17.85
2022-08-16T05:26:31.797Z,17.88
2022-08-16T05:29:04.425Z,17.93
2022-08-16T05:31:35.087Z,17.97
2022-08-16T05:34:05.431Z,18.03
2022-08-16T05:36:51.196Z,18.09
2022-08-16T05:39:20.855Z,18.17
2022-08-16T05:41:51.722Z,18.24
2022-08-16T05:44:23.393Z,18.29
2022-08-16T05:46:56.580Z,18.34
2022-08-16T05:49:39.390Z,18.38
2022-08-16T05:52:13.903Z,18.43
2022-08-16T05:54:47.775Z,18.48
2022-08-16T05:57:26.734Z,18.56
2022-08-16T06:00:08.520Z,18.64
2022-08-16T06:02:40.182Z,18.72
2022-08-16T06:05:24.197Z,18.79
2022-08-16T06:07:58.227Z,18.84
2022-08-16T06:10:33.351Z,18.91
2022-08-16T06:13:04.967Z,18.96
2022-08-16T06:15:33.388Z,19.03
2022-08-16T06:18:03.916Z,19.10
2022-08-16T06:20:35.627Z,19.18
2022-08-16T06:23:17.493Z,19.31
2022-08-16T06:26:07.669Z,19.36
2022-08-16T06:28:38.584Z,19.42
2022-08-16T06:31:13.861Z,19.49
2022-08-16T06:33:45.700Z,19.54
2022-08-16T06:36:17.661Z,19.58
2022-08-16T06:39:12.544Z,19.63
2022-08-16T06:41:50.198Z,19.68
2022-08-16T06:44:39.579Z,19.73
2022-08-16T06:47:17.065Z,19.78
2022-08-16T06:49:52.730Z,19.86
2022-08-16T06:52:57.672Z,19.93
2022-08-16T06:55:15.502Z,19.99
2022-08-16T06:57:48.781Z,20.06
2022-08-16T07:00:24.761Z,20.12
2022-08-16T07:03:02.689Z,20.19
2022-08-16T07:05:50.957Z,20.27
2022-08-16T07:08:29.027Z,20.33
2022-08-16T07:10:58.774Z,20.40
2022-08-16T07:14:00.597Z,20.47
2022-08-16T07:16:21.260Z,20.54
2022-08-16T07:18:59.211Z,20.59
2022-08-16T07:21:45.942Z,20.67
2022-08-16T07:24:30.162Z,20.72
2022-08-16T07:27:02.153Z,20.77
2022-08-16T07:29:32.133Z,20.84
2022-08-16T07:32:01.962Z,20.92
2022-08-16T07:34:35.222Z,21.02
2022-08-16T07:37:07.586Z,21.11
2022-08-16T07:39:54.550Z,21.18
2022-08-16T07:42:28.216Z,21.26
2022-08-16T07:45:03.370Z,21.35
2022-08-16T07:47:36.032Z,21.41
2022-08-16T07:50:07.759Z,21.50
2022-08-16T07:52:38.822Z,21.57
2022-08-16T07:55:20.997Z,21.70
2022-08-16T07:58:01.034Z,21.81
2022-08-16T08:00:35.191Z,21.94
2022-08-16T08:03:03.497Z,22.03
2022-08-16T08:05:35.670Z,22.14
2022-08-16T08:08:11.467Z,22.24
2022-08-16T08:10:54.545Z,22.38
2022-08-16T08:13:41.724Z,22.50
2022-08-16T08:16:18.896Z,22.63
2022-08-16T08:18:49.973Z,22.72
2022-08-16T08:21:27.396Z,22.85
2022-08-16T08:23:57.735Z,22.95
2022-08-16T08:26:28.646Z,23.06
2022-08-16T08:29:00.654Z,23.18
2022-08-16T08:31:30.201Z,23.29
2022-08-16T08:34:00.693Z,23.37
2022-08-16T08:36:34.190Z,23.48
2022-08-16T08:39:15.381Z,23.63
2022-08-16T08:41:46.415Z,23.78
2022-08-16T08:44:29.107Z,23.87
2022-08-16T08:47:03.289Z,23.99
2022-08-16T08:49:50.281Z,24.08
2022-08-16T08:52:34.171Z,24.21
2022-08-16T08:55:10.450Z,24.34
2022-08-16T08:57:42.671Z,24.41
2022-08-16T09:00:51.444Z,24.52
2022-08-16T09:03:21.355Z,24.63
2022-08-16T09:05:51.755Z,24.74
2022-08-16T09:08:22.361Z,24.86
2022-08-16T09:11:02.410Z,24.97
2022-08-16T09:13:34.082Z,25.09
2022-08-16T09:16:03.221Z,25.19
2022-08-16T09:18:35.451Z,25.26
2022-08-16T09:21:07.103Z,25.41
2022-08-16T09:23:38.640Z,25.54
2022-08-16T09:26:44.816Z,25.63
2022-08-16T09:29:16.112Z,25.71
2022-08-16T09:31:47.273Z,25.80
2022-08-16T09:34:21.321Z,25.93
2022-08-16T09:36:49.108Z,26.05
2022-08-16T09:39:21.938Z,26.17
2022-08-16T09:41:54.136Z,26.29
2022-08-16T09:45:13.040Z,26.40
2022-08-16T09:47:13.481Z,26.48
2022-08-16T09:49:42.214Z,26.56
2022-08-16T09:52:11.353Z,26.67
2022-08-16T09:54:44.661Z,26.66
2022-08-16T09:57:13.265Z,26.72
2022-08-16T09:59:42.453Z,26.75
2022-08-16T10:02:27.326Z,26.82
2022-08-16T10:05:01.427Z,26.99
2022-08-16T10:07:49.041Z,27.12
2022-08-16T10:10:31.066Z,27.27
2022-08-16T10:13:16.311Z,27.35
2022-08-16T10:15:55.479Z,27.38
2022-08-16T10:19:00.569Z,27.42
2022-08-16T10:21:11.893Z,27.57
2022-08-16T10:23:40.510Z,27.71
2022-08-16T10:27:17.382Z,27.84
2022-08-16T10:28:59.750Z,27.96
2022-08-16T10:31:44.264Z,28.09
2022-08-16T10:34:31.368Z,28.27
2022-08-16T10:37:00.675Z,28.43
2022-08-16T10:39:32.979Z,28.53
2022-08-16T10:42:09.468Z,28.60
2022-08-16T10:44:37.860Z,28.77
2022-08-16T10:47:07.358Z,28.84
2022-08-16T10:49:36.580Z,28.98
2022-08-16T10:52:19.037Z,29.03
2022-08-16T10:57:35.820Z,29.22
2022-08-16T11:00:22.263Z,29.43
2022-08-16T11:02:59.534Z,29.66
2022-08-16T11:05:59.037Z,29.82
2022-08-16T11:08:18.084Z,29.83
2022-08-16T11:11:05.455Z,29.85
2022-08-16T11:16:26.483Z,30.05
2022-08-16T11:19:05.731Z,30.26
2022-08-16T11:22:39.227Z,30.35
2022-08-16T11:24:39.284Z,30.52
2022-08-16T11:27:35.304Z,30.77
2022-08-16T11:29:57.965Z,31.03
2022-08-16T11:32:29.975Z,31.22
2022-08-16T11:35:13.347Z,31.31
2022-08-16T11:40:37.865Z,31.14
2022-08-16T11:43:07.745Z,31.17
2022-08-16T11:45:38.447Z,31.28
2022-08-16T11:48:06.728Z,31.44
2022-08-16T11:50:36.582Z,31.68
2022-08-16T11:53:08.270Z,31.84
2022-08-16T11:55:39.030Z,31.96
2022-08-16T11:58:10.983Z,32.07
2022-08-16T12:00:51.219Z,32.14
2022-08-16T12:03:31.094Z,32.28
2022-08-16T12:06:10.747Z,32.57
2022-08-16T12:08:41.215Z,32.80
2022-08-16T12:11:11.904Z,32.97
2022-08-16T12:13:40.400Z,32.99
2022-08-16T12:16:09.373Z,32.92
2022-08-16T12:18:39.745Z,32.75
2022-08-16T12:21:09.797Z,32.51
2022-08-16T12:23:38.354Z,32.58
2022-08-16T12:26:10.564Z,32.44
2022-08-16T12:28:54.422Z,32.28
2022-08-16T12:31:23.668Z,31.94
2022-08-16T12:33:54.407Z,31.75
2022-08-16T12:36:30.088Z,31.56
2022-08-16T12:38:59.144Z,31.40
2022-08-16T12:41:27.025Z,31.38
2022-08-16T12:43:56.863Z,31.26
2022-08-16T12:46:25.248Z,31.12
2022-08-16T12:48:58.635Z,31.01
2022-08-16T12:51:32.832Z,30.91
2022-08-16T12:54:20.166Z,30.82
2022-08-16T12:56:48.235Z,30.86
2022-08-16T12:59:20.516Z,30.88
2022-08-16T13:01:50.538Z,30.97
2022-08-16T13:04:24.645Z,31.03
2022-08-16T13:06:54.919Z,31.00
2022-08-16T13:09:26.045Z,31.01
2022-08-16T13:12:03.686Z,30.98
2022-08-16T13:14:36.969Z,31.03
2022-08-16T13:17:08.319Z,31.35
2022-08-16T13:20:06.672Z,31.55
2022-08-16T13:22:26.838Z,31.65
2022-08-16T13:24:55.718Z,31.60
2022-08-16T13:28:01.427Z,31.64
2022-08-16T13:30:36.205Z,31.81
2022-08-16T13:33:01.315Z,31.86
2022-08-16T13:35:38.311Z,31.76
2022-08-16T13:38:24.471Z,31.77
2022-08-16T13:40:56.038Z,31.96
2022-08-16T13:43:26.894Z,32.38
2022-08-16T13:45:55.930Z,32.82
2022-08-16T13:48:24.903Z,33.24
2022-08-16T13:50:54.284Z,33.56
2022-08-16T13:53:24.106Z,33.69
2022-08-16T13:55:57.606Z,33.78
2022-08-16T13:58:34.848Z,33.76
2022-08-16T14:01:04.325Z,34.00
2022-08-16T14:03:38.842Z,34.21
2022-08-16T14:06:08.193Z,34.25
2022-08-16T14:08:41.880Z,34.25
2022-08-16T14:11:12.188Z,34.12
2022-08-16T14:13:41.149Z,34.31
2022-08-16T14:16:12.634Z,34.51
2022-08-16T14:18:52.680Z,34.74
2022-08-16T14:21:21.880Z,34.72
2022-08-16T14:23:53.161Z,34.80
2022-08-16T14:26:21.535Z,34.93
2022-08-16T14:28:50.886Z,35.01
2022-08-16T14:31:19.075Z,34.97
2022-08-16T14:33:46.958Z,35.01
2022-08-16T14:36:18.641Z,35.15
2022-08-16T14:38:59.582Z,35.30
2022-08-16T14:41:27.821Z,35.42
2022-08-16T14:43:56.389Z,35.41
2022-08-16T14:46:24.805Z,35.55
2022-08-16T14:48:53.786Z,35.72
2022-08-16T14:51:22.725Z,35.58
2022-08-16T14:53:52.689Z,35.58
2022-08-16T14:56:38.601Z,35.58
2022-08-16T14:59:11.130Z,35.51
2022-08-16T15:01:58.178Z,35.35
2022-08-16T15:04:39.708Z,35.31
2022-08-16T15:07:12.449Z,35.21
2022-08-16T15:09:44.354Z,35.20
2022-08-16T15:12:33.541Z,35.11
2022-08-16T15:15:04.488Z,34.96
2022-08-16T15:17:40.608Z,34.87
2022-08-16T15:20:09.869Z,34.75
2022-08-16T15:22:40.757Z,34.62
2022-08-16T15:25:13.239Z,34.37
2022-08-16T15:27:55.155Z,34.22
2022-08-16T15:30:58.060Z,33.97
2022-08-16T15:33:20.174Z,33.85
2022-08-16T15:35:50.726Z,33.71
2022-08-16T15:38:57.153Z,33.59
2022-08-16T15:41:07.425Z,33.41
2022-08-16T15:43:39.231Z,33.27
2022-08-16T15:46:35.719Z,33.23
2022-08-16T15:49:11.949Z,33.04
2022-08-16T15:51:41.261Z,32.84
2022-08-16T15:54:21.540Z,32.66
2022-08-16T15:57:09.619Z,32.51
2022-08-16T15:59:49.125Z,32.38
2022-08-16T16:02:29.252Z,32.28
2022-08-16T16:05:01.848Z,32.15
2022-08-16T16:07:31.337Z,31.99
2022-08-16T16:09:59.838Z,31.85
2022-08-16T16:12:53.285Z,31.73
2022-08-16T16:15:20.278Z,31.63
2022-08-16T16:17:52.426Z,31.57
2022-08-16T16:20:24.347Z,31.50
2022-08-16T16:22:56.746Z,31.40
2022-08-16T16:25:26.344Z,31.29
2022-08-16T16:27:59.388Z,31.18
2022-08-16T16:30:37.265Z,31.06
2022-08-16T16:33:15.565Z,30.99
2022-08-16T16:35:55.561Z,30.92
2022-08-16T16:38:29.026Z,30.80
2022-08-16T16:40:57.799Z,30.65
2022-08-16T16:43:31.929Z,30.54
2022-08-16T16:46:05.841Z,30.43
2022-08-16T16:48:51.904Z,30.33
2022-08-16T16:51:21.707Z,30.26
2022-08-16T16:53:56.153Z,30.15
2022-08-16T16:56:32.254Z,30.05
2022-08-16T16:59:06.628Z,29.95
2022-08-16T17:01:57.127Z,29.84
2022-08-16T17:04:31.443Z,29.73
2022-08-16T17:07:00.688Z,29.64
2022-08-16T17:09:28.551Z,29.57
2022-08-16T17:11:58.470Z,29.49
2022-08-16T17:14:33.683Z,29.42
2022-08-16T17:17:07.079Z,29.35
2022-08-16T17:19:40.918Z,29.27
2022-08-16T17:22:14.786Z,29.19
2022-08-16T17:24:50.825Z,29.10
2022-08-16T17:27:33.661Z,29.02
2022-08-16T17:30:16.518Z,28.95
2022-08-16T17:32:50.747Z,28.87
2022-08-16T17:35:34.233Z,28.77
2022-08-16T17:38:06.254Z,28.67
2022-08-16T17:40:45.926Z,28.57
2022-08-16T17:43:20.689Z,28.46
2022-08-16T17:45:49.893Z,28.39
2022-08-16T17:48:19.118Z,28.30
2022-08-16T17:50:54.702Z,28.20
2022-08-16T17:53:22.858Z,28.12
2022-08-16T17:55:51.465Z,28.05
2022-08-16T17:58:23.533Z,27.99
2022-08-16T18:00:54.125Z,27.93
2022-08-16T18:04:02.648Z,27.86
2022-08-16T18:06:17.836Z,27.79
2022-08-16T18:08:48.865Z,27.75
2022-08-16T18:11:18.960Z,27.69
2022-08-16T18:13:53.872Z,27.61
2022-08-16T18:16:21.717Z,27.56
2022-08-16T18:18:50.853Z,27.51
2022-08-16T18:21:36.057Z,27.46
2022-08-16T18:24:04.253Z,27.42
2022-08-16T18:26:32.213Z,27.38
2022-08-16T18:29:00.055Z,27.34
2022-08-16T18:31:27.924Z,27.29
2022-08-16T18:33:57.216Z,27.23
2022-08-16T18:36:25.797Z,27.18
2022-08-16T18:38:55.140Z,27.14
2022-08-16T18:41:24.755Z,27.11
2022-08-16T18:44:04.839Z,27.06
2022-08-16T18:46:41.956Z,27.02
2022-08-16T18:49:13.131Z,27.00
2022-08-16T18:51:45.546Z,26.95
2022-08-16T18:54:16.418Z,26.89
2022-08-16T18:56:55.983Z,26.83
2022-08-16T18:59:29.773Z,26.79
2022-08-16T19:02:00.004Z,26.77
2022-08-16T19:04:47.646Z,26.74
2022-08-16T19:07:22.110Z,26.72
2022-08-16T19:09:50.084Z,26.68
2022-08-16T19:12:17.909Z,26.65
2022-08-16T19:15:09.663Z,26.62
2022-08-16T19:17:40.057Z,26.60
2022-08-16T19:20:11.354Z,26.55
2022-08-16T19:25:47.514Z,26.45
2022-08-16T19:28:45.916Z,26.37
2022-08-16T19:31:10.807Z,26.31
2022-08-16T19:33:47.489Z,26.25
2022-08-16T19:36:31.935Z,26.17
2022-08-16T19:39:04.297Z,26.12
2022-08-16T19:41:34.511Z,26.06
2022-08-16T19:44:02.330Z,26.00
2022-08-16T19:46:30.198Z,25.94
2022-08-16T19:48:58.053Z,25.87
2022-08-16T19:51:27.210Z,25.82
2022-08-16T19:53:55.089Z,25.74
2022-08-16T19:56:25.853Z,25.69
2022-08-16T20:01:42.970Z,25.53
2022-08-16T20:04:12.519Z,25.47
2022-08-16T20:06:42.639Z,25.39
2022-08-16T20:09:14.515Z,25.33
2022-08-16T20:11:44.422Z,25.28
2022-08-16T20:14:24.434Z,25.19
2022-08-16T20:16:55.454Z,25.12
2022-08-16T20:19:23.511Z,25.05
2022-08-16T20:21:52.749Z,24.96
2022-08-16T20:24:34.182Z,24.89
2022-08-16T20:27:03.711Z,24.83
2022-08-16T20:29:31.577Z,24.78
2022-08-16T20:31:59.398Z,24.71
2022-08-16T20:34:27.345Z,24.65
2022-08-16T20:36:56.534Z,24.59
2022-08-16T20:39:24.475Z,24.54
2022-08-16T20:41:52.518Z,24.48
2022-08-16T20:44:23.017Z,24.41
2022-08-16T20:46:53.519Z,24.37
2022-08-16T20:49:21.373Z,24.31
2022-08-16T20:51:53.718Z,24.23
2022-08-16T20:54:25.226Z,24.18
2022-08-16T20:56:53.027Z,24.12
2022-08-16T20:59:21.087Z,24.07
2022-08-16T21:01:50.339Z,24.01
2022-08-16T21:04:19.169Z,23.95
2022-08-16T21:06:54.045Z,23.87
2022-08-16T21:09:23.500Z,23.82
2022-08-16T21:11:53.404Z,23.75
2022-08-16T21:14:21.387Z,23.70
2022-08-16T21:16:49.401Z,23.64
2022-08-16T21:19:17.679Z,23.58
2022-08-16T21:21:45.641Z,23.52
2022-08-16T21:24:14.062Z,23.47
2022-08-16T21:26:49.794Z,23.43
2022-08-16T21:29:36.331Z,23.38
2022-08-16T21:32:13.632Z,23.32
2022-08-16T21:34:42.645Z,23.27
2022-08-16T21:37:10.554Z,23.22
2022-08-16T21:39:38.672Z,23.18
2022-08-16T21:42:10.189Z,23.13
2022-08-16T21:44:39.730Z,23.08
2022-08-16T21:47:08.197Z,23.04
2022-08-16T21:49:36.761Z,22.99
2022-08-16T21:52:05.536Z,22.94
2022-08-16T21:54:33.448Z,22.91
2022-08-16T21:57:01.242Z,22.88
2022-08-16T21:59:29.093Z,22.84
2022-08-16T22:01:58.266Z,22.79
2022-08-16T22:04:37.316Z,22.74
2022-08-16T22:07:07.402Z,22.68
2022-08-16T22:09:35.473Z,22.64
2022-08-16T22:12:03.329Z,22.59
2022-08-16T22:14:31.191Z,22.54
2022-08-16T22:17:00.402Z,22.51
2022-08-16T22:19:28.307Z,22.47
2022-08-16T22:21:56.460Z,22.42
2022-08-16T22:24:24.271Z,22.37
2022-08-16T22:26:52.054Z,22.34
2022-08-16T22:29:20.289Z,22.29
2022-08-16T22:31:48.093Z,22.25
2022-08-16T22:34:17.334Z,22.20
2022-08-16T22:36:45.310Z,22.15
2022-08-16T22:39:15.131Z,22.09
2022-08-16T22:41:45.578Z,22.05
2022-08-16T22:44:14.072Z,22.01
2022-08-16T22:46:42.249Z,21.96
2022-08-16T22:49:10.825Z,21.91
2022-08-16T22:51:41.371Z,21.90
2022-08-16T22:54:34.361Z,21.87
2022-08-16T22:56:58.765Z,21.82
2022-08-16T22:59:28.627Z,21.79
2022-08-16T23:01:56.500Z,21.75
2022-08-16T23:04:25.048Z,21.72
2022-08-16T23:06:54.601Z,21.69
2022-08-16T23:09:22.767Z,21.65
2022-08-16T23:11:50.913Z,21.61
2022-08-16T23:14:19.449Z,21.57
2022-08-16T23:16:47.399Z,21.54
2022-08-16T23:19:16.805Z,21.50
2022-08-16T23:21:47.106Z,21.47
2022-08-16T23:24:19.496Z,21.45
2022-08-16T23:26:49.071Z,21.41
2022-08-16T23:29:23.475Z,21.37
2022-08-16T23:31:56.057Z,21.33
2022-08-16T23:34:23.972Z,21.30
2022-08-16T23:36:51.791Z,21.28
2022-08-16T23:39:21.063Z,21.24
2022-08-16T23:41:48.994Z,21.20
2022-08-16T23:44:56.089Z,21.17
2022-08-16T23:47:06.444Z,21.14
2022-08-16T23:49:56.960Z,21.11
2022-08-16T23:52:53.443Z,21.07
2022-08-16T23:55:12.073Z,21.03
2022-08-16T23:57:39.923Z,20.99
